Terminal Aerodrome Forecast
Issued by NWS Upton, NY

Home | Current Version | Previous Version | Text Only | Print | Product List | Glossary On
Versions: 1 2 3 4 5 6 7 8 9 10 11 12 13 14 15 16 17 18 19 20 21 22 23 24 25 26 27 28 29 30 31 32 33 34 35
000
FTUS41 KOKX 281730 CCA
TAFEWR
TAF COR
KEWR 281730Z 2818/2924 19010KT P6SM SCT050 BKN250
     FM281900 21010KT P6SM VCTS BKN050CB BKN250
      TEMPO 2819/2822 28012G22KT 4SM -TSRA BR
     FM282200 25010KT P6SM BKN050 BKN250
     FM290100 28006KT P6SM FEW100 BKN250
     FM290400 02005KT P6SM SKC
     FM291300 06007KT P6SM SKC
     FM291800 15009KT P6SM FEW050=

USA.gov is the U.S. government's official web portal to all federal, state and local government web resources and services.